Time;durP1;ratioP1;P1;durP2;ratioP2;P2;SDS_P1;SDS_P2;PMS_P1;PMS_P2;Temp;Humidity;BMP_temperature;BMP_pressure;BME280_temperature;BME280_humidity;BME280_pressure;Samples;Min_cycle;Max_cycle;Signal;HPM_P1;HPM_P2
2022/12/19 00:01:16;;;;;;;43.60;19.80;;;;;;;-5.51;82.00;102798.63;1474875;88;21548;-80
2022/12/19 00:03:51;;;;;;;40.00;16.80;;;;;;;-5.48;82.17;102806.83;1470834;88;21443;-82
2022/12/19 00:06:19;;;;;;;44.18;19.82;;;;;;;-5.50;82.23;102808.09;1471678;88;21615;-80
2022/12/19 00:08:48;;;;;;;43.08;19.20;;;;;;;-5.52;82.14;102804.66;1475527;88;21511;-80
2022/12/19 00:11:15;;;;;;;41.00;18.50;;;;;;;-5.55;82.84;102810.19;1476589;88;21384;-81
2022/12/19 00:13:42;;;;;;;40.33;17.17;;;;;;;-5.60;82.81;102815.33;1471080;88;21392;-81
2022/12/19 00:16:13;;;;;;;45.75;20.97;;;;;;;-5.61;82.60;102817.48;1475865;88;22302;-81
2022/12/19 00:18:42;;;;;;;50.90;23.02;;;;;;;-5.59;82.79;102822.64;1471010;88;21333;-82
2022/12/19 00:21:13;;;;;;;45.12;21.25;;;;;;;-5.61;82.24;102826.51;1468036;88;21466;-82
2022/12/19 00:23:40;;;;;;;;;;;;;;;-5.66;82.30;102826.88;1470923;88;21429;-81
2022/12/19 00:26:13;;;;;;;48.20;22.22;;;;;;;-5.73;83.56;102831.53;1476510;88;20369;-82
2022/12/19 00:28:41;;;;;;;48.15;20.57;;;;;;;-5.73;82.86;102830.23;1470861;88;21503;-82
2022/12/19 00:31:09;;;;;;;52.93;22.45;;;;;;;-5.75;83.62;102835.83;1483997;88;21378;-83
2022/12/19 00:33:35;;;;;;;46.23;18.60;;;;;;;-5.72;83.25;102831.98;1469167;88;22271;-81
2022/12/19 00:36:06;;;;;;;47.35;20.57;;;;;;;-5.74;84.09;102824.66;1476909;88;21533;-82
2022/12/19 00:38:32;;;;;;;40.73;19.80;;;;;;;-5.77;83.73;102827.20;1479581;88;21333;-82
2022/12/19 00:41:17;;;;;;;45.05;19.98;;;;;;;-5.83;83.59;102827.14;1472114;88;21369;-83
2022/12/19 00:43:44;;;;;;;48.78;19.87;;;;;;;-5.86;84.18;102827.11;1471673;88;21492;-84
2022/12/19 00:46:14;;;;;;;45.60;21.00;;;;;;;-5.84;85.06;102831.84;1469542;88;22342;-83
2022/12/19 00:48:41;;;;;;;53.13;24.90;;;;;;;-5.78;84.36;102835.77;1480949;88;21288;-83
2022/12/19 00:51:20;;;;;;;62.13;24.00;;;;;;;-5.73;84.06;102835.39;1472978;88;21369;-82
2022/12/19 00:53:49;;;;;;;42.60;19.42;;;;;;;-5.71;83.83;102833.27;1477355;88;22170;-84
2022/12/19 00:56:23;;;;;;;39.42;17.32;;;;;;;-5.74;83.58;102832.39;1474869;88;22360;-83
2022/12/19 00:58:51;;;;;;;44.63;17.70;;;;;;;-5.83;82.98;102831.02;1476274;88;21496;-80
2022/12/19 01:01:25;;;;;;;41.88;16.73;;;;;;;-5.86;82.80;102834.85;1473054;88;22257;-82
2022/12/19 01:03:52;;;;;;;41.70;19.67;;;;;;;-5.90;82.83;102830.95;1470944;88;22494;-82
2022/12/19 01:06:21;;;;;;;44.45;17.85;;;;;;;-5.90;83.13;102829.67;1473229;88;21488;-82
2022/12/19 01:08:47;;;;;;;38.88;17.35;;;;;;;-5.88;83.82;102832.67;1476913;88;21488;-82
2022/12/19 01:11:13;;;;;;;37.58;17.65;;;;;;;-5.88;83.95;102828.38;1479871;88;21429;-81
2022/12/19 01:13:40;;;;;;;47.03;21.05;;;;;;;-5.90;83.42;102830.06;1466357;88;21385;-83
2022/12/19 01:16:10;;;;;;;44.75;18.90;;;;;;;-5.88;83.57;102828.80;1479656;88;22206;-83
2022/12/19 01:18:37;;;;;;;46.83;20.48;;;;;;;-5.89;83.58;102822.79;1465994;88;22287;-83
2022/12/19 01:21:07;;;;;;;48.38;20.32;;;;;;;-5.93;83.23;102824.91;1475063;88;22258;-83
2022/12/19 01:23:35;;;;;;;46.58;20.80;;;;;;;-5.92;83.15;102827.48;1469031;88;21304;-84
2022/12/19 01:26:02;;;;;;;48.33;22.32;;;;;;;-5.90;83.64;102831.35;1475401;88;21378;-82
2022/12/19 01:28:29;;;;;;;53.15;20.62;;;;;;;-5.86;83.63;102828.41;1471642;88;21340;-81
2022/12/19 01:30:56;;;;;;;48.40;19.48;;;;;;;-5.84;83.21;102825.39;1476825;88;22404;-83
2022/12/19 01:33:22;;;;;;;58.95;23.80;;;;;;;-5.82;82.83;102827.58;1464503;88;21628;-82
2022/12/19 01:35:48;;;;;;;57.53;25.65;;;;;;;-5.81;82.72;102821.55;1472998;88;21444;-82
2022/12/19 01:38:18;;;;;;;49.42;22.25;;;;;;;-5.79;82.76;102818.58;1473509;88;21318;-81
2022/12/19 01:40:55;;;;;;;61.25;23.90;;;;;;;-5.80;82.62;102818.14;1405506;88;22222;-83
2022/12/19 01:43:23;;;;;;;59.55;25.37;;;;;;;-5.80;82.72;102824.59;1478585;88;21490;-82
2022/12/19 01:46:00;;;;;;;52.80;22.50;;;;;;;-5.81;83.08;102820.27;1491023;88;22302;-83
2022/12/19 01:48:38;;;;;;;52.60;23.32;;;;;;;-5.89;83.56;102822.79;1469410;88;21487;-80
2022/12/19 01:51:16;;;;;;;56.05;23.52;;;;;;;-5.90;82.92;102818.06;1477053;88;21384;-83
2022/12/19 01:53:53;;;;;;;55.65;23.27;;;;;;;-5.93;83.13;102824.48;1478570;88;21341;-82
2022/12/19 01:56:25;;;;;;;54.90;23.77;;;;;;;-5.92;82.90;102828.77;1473859;88;21371;-82
2022/12/19 01:58:55;;;;;;;53.33;24.30;;;;;;;-5.96;83.14;102827.03;1473809;88;22286;-83
2022/12/19 02:01:21;;;;;;;55.17;22.32;;;;;;;-6.03;83.41;102818.80;1484962;88;21362;-84
2022/12/19 02:03:50;;;;;;;57.93;24.27;;;;;;;-6.11;84.63;102823.00;1475936;88;22303;-83
2022/12/19 02:06:17;;;;;;;56.15;23.35;;;;;;;-6.11;83.72;102823.00;1472449;88;21362;-83
2022/12/19 02:08:48;;;;;;;52.95;21.77;;;;;;;-6.11;84.68;102826.87;1475702;88;21363;-83
2022/12/19 02:11:14;;;;;;;47.70;21.37;;;;;;;-6.15;84.54;102825.12;1467449;88;21577;-81
2022/12/19 02:13:41;;;;;;;48.28;22.13;;;;;;;-6.11;83.84;102829.87;1472576;88;21518;-81
2022/12/19 02:16:22;;;;;;;51.30;21.93;;;;;;;-6.10;83.66;102841.48;1469024;88;22332;-81
2022/12/19 02:19:11;;;;;;;42.55;20.68;;;;;;;-6.08;83.56;102838.94;1472184;88;21635;-80
2022/12/19 02:22:04;;;;;;;48.33;22.95;;;;;;;-6.15;84.51;102837.58;1476578;88;21578;-84
2022/12/19 02:25:05;;;;;;;48.05;21.50;;;;;;;-6.20;84.39;102826.77;1470014;88;21385;-82
2022/12/19 02:27:53;;;;;;;54.48;21.50;;;;;;;-6.20;85.12;102823.77;1472786;88;21672;-83
2022/12/19 02:30:51;;;;;;;48.80;19.55;;;;;;;-6.22;84.71;102809.13;1475193;88;21444;-84
2022/12/19 02:33:23;;;;;;;48.52;20.50;;;;;;;-6.21;84.56;102801.85;1479042;88;22272;-83
2022/12/19 02:35:58;;;;;;;40.83;18.20;;;;;;;-6.20;84.05;102799.70;1475309;88;22302;-83
2022/12/19 02:38:51;;;;;;;46.02;20.20;;;;;;;-6.23;84.12;102800.53;1471177;88;21385;-83
2022/12/19 02:41:23;;;;;;;46.35;21.48;;;;;;;-6.24;84.87;102803.08;1471316;88;22198;-83
2022/12/19 02:43:51;;;;;;;44.38;21.02;;;;;;;-6.28;85.49;102809.06;1471146;88;21556;-83
2022/12/19 02:46:19;;;;;;;50.10;22.22;;;;;;;-6.28;84.80;102807.77;1472370;88;21386;-82
2022/12/19 02:48:47;;;;;;;51.63;19.50;;;;;;;-6.33;86.58;102805.55;1472958;87;21230;-84
2022/12/19 02:51:13;;;;;;;48.23;21.82;;;;;;;-6.36;86.16;102805.98;1477198;88;21422;-83
2022/12/19 02:53:41;;;;;;;45.38;21.15;;;;;;;-6.38;85.96;102797.36;1476083;88;21421;-84
2022/12/19 02:56:42;;;;;;;45.05;20.17;;;;;;;-6.39;85.76;102803.37;1475863;88;21389;-83
2022/12/19 02:59:36;;;;;;;54.13;22.32;;;;;;;-6.38;85.79;102803.80;1465157;88;21431;-81
2022/12/19 03:02:26;;;;;;;56.28;21.57;;;;;;;-6.36;85.67;102798.25;1476563;88;21443;-80
2022/12/19 03:05:03;;;;;;;50.20;23.85;;;;;;;-6.32;85.72;102804.30;1477200;88;21649;-84
2022/12/19 03:07:44;;;;;;;54.85;22.45;;;;;;;-6.33;85.63;102800.40;1470300;88;22332;-85
2022/12/19 03:10:40;;;;;;;58.25;23.40;;;;;;;-6.37;85.39;102797.79;1471016;88;21488;-85
2022/12/19 03:13:43;;;;;;;55.40;23.50;;;;;;;-6.39;85.52;102798.61;1456153;88;21414;-87
2022/12/19 03:16:11;;;;;;;52.88;24.50;;;;;;;-6.40;85.15;102795.17;1452637;88;21422;-85
2022/12/19 03:18:38;;;;;;;56.63;22.60;;;;;;;-6.38;85.57;102797.36;1476152;87;21370;-84
2022/12/19 03:21:16;;;;;;;53.28;22.85;;;;;;;-6.33;85.59;102789.66;1475546;88;22272;-85
2022/12/19 03:23:44;;;;;;;53.73;21.62;;;;;;;-6.30;85.40;102791.02;1470713;88;21751;-82
2022/12/19 03:26:19;;;;;;;48.38;21.62;;;;;;;-6.29;85.79;102788.01;1474346;88;22258;-83
2022/12/19 03:28:52;;;;;;;47.13;20.75;;;;;;;-6.25;85.49;102790.62;1472853;88;21464;-84
2022/12/19 03:31:23;;;;;;;55.80;24.75;;;;;;;-6.24;85.04;102786.33;1474383;88;21550;-85
2022/12/19 03:34:01;;;;;;;44.95;20.80;;;;;;;-6.21;84.85;102787.67;1482528;88;21451;-85
2022/12/19 03:36:41;;;;;;;54.23;22.73;;;;;;;-6.19;84.64;102789.83;1468754;88;21569;-84
2022/12/19 03:39:10;;;;;;;53.80;24.18;;;;;;;-6.18;84.39;102790.28;1469757;88;22213;-83
2022/12/19 03:44:27;;;;;;;56.33;26.87;;;;;;;-6.21;84.11;102791.11;1468943;88;21482;-84
2022/12/19 03:47:02;;;;;;;55.78;25.40;;;;;;;-6.23;84.18;102786.78;1472623;88;21259;-84
2022/12/19 03:49:28;;;;;;;67.22;24.85;;;;;;;-6.23;84.05;102783.78;1478924;88;21570;-85
2022/12/19 03:52:11;;;;;;;49.10;22.37;;;;;;;-6.21;84.60;102790.25;1472364;88;21496;-83
2022/12/19 03:54:42;;;;;;;54.42;26.48;;;;;;;-6.20;84.29;102791.97;1474039;88;21341;-84
2022/12/19 03:57:16;;;;;;;55.45;25.10;;;;;;;-6.21;84.20;102783.81;1480868;88;21996;-83
2022/12/19 03:59:49;;;;;;;52.80;24.92;;;;;;;-6.23;84.10;102786.78;1482920;88;21590;-83
2022/12/19 04:02:18;;;;;;;52.62;22.70;;;;;;;-6.27;84.25;102783.31;1475181;88;22541;-82
2022/12/19 04:04:49;;;;;;;57.20;23.70;;;;;;;-6.27;84.17;102786.30;1474598;88;21363;-85
2022/12/19 04:07:17;;;;;;;56.08;25.70;;;;;;;-6.28;84.09;102792.30;1477755;88;22324;-84
2022/12/19 04:09:45;;;;;;;61.85;25.57;;;;;;;-6.32;84.30;102796.56;1470348;88;21392;-80
2022/12/19 04:12:19;;;;;;;53.83;24.67;;;;;;;-6.32;84.53;102791.41;1460222;88;21488;-84
2022/12/19 04:14:45;;;;;;;64.45;27.70;;;;;;;-6.29;84.39;102788.01;1465489;88;21506;-85
2022/12/19 04:17:47;;;;;;;54.73;23.52;;;;;;;-6.31;84.78;102785.83;1473109;88;21482;-82
2022/12/19 04:20:21;;;;;;;59.25;25.17;;;;;;;-6.30;84.76;102786.26;1471674;88;21451;-82
2022/12/19 04:23:04;;;;;;;56.53;26.05;;;;;;;-6.30;84.46;102781.99;1482327;88;21348;-83
2022/12/19 04:25:35;;;;;;;60.38;24.65;;;;;;;-6.29;84.50;102781.56;1475852;88;22184;-84
2022/12/19 04:28:06;;;;;;;53.08;21.45;;;;;;;-6.33;85.12;102787.08;1454056;88;21473;-83
2022/12/19 04:30:33;;;;;;;66.70;27.13;;;;;;;-6.39;84.70;102785.33;1472424;88;21429;-84
2022/12/19 04:32:59;;;;;;;57.03;23.80;;;;;;;-6.38;84.39;102786.19;1478636;88;21429;-83
2022/12/19 04:35:25;;;;;;;50.38;23.73;;;;;;;-6.38;84.59;102774.16;1477155;88;21356;-84
2022/12/19 04:37:52;;;;;;;63.75;25.15;;;;;;;-6.34;84.87;102774.20;1475322;88;21378;-85
2022/12/19 04:40:18;;;;;;;54.05;24.40;;;;;;;-6.31;84.88;102780.25;1473803;88;21436;-84
2022/12/19 04:42:44;;;;;;;69.00;32.25;;;;;;;-6.31;85.14;102781.53;1486119;88;21467;-84
2022/12/19 04:45:10;;;;;;;51.48;23.75;;;;;;;-6.31;84.77;102779.39;1440878;88;21376;-81
2022/12/19 04:47:37;;;;;;;55.60;26.10;;;;;;;-6.35;84.79;102782.36;1459585;88;21562;-82
2022/12/19 04:50:04;;;;;;;54.05;23.52;;;;;;;-6.39;84.61;102780.18;1472475;88;21422;-82
2022/12/19 04:52:30;;;;;;;68.17;28.60;;;;;;;-6.42;84.39;102777.53;1476906;88;21482;-83
2022/12/19 04:54:56;;;;;;;67.05;30.60;;;;;;;-6.43;84.36;102779.68;1473457;88;21569;-84
2022/12/19 04:57:22;;;;;;;54.98;24.10;;;;;;;-6.43;84.93;102776.25;1479879;88;21429;-82
2022/12/19 04:59:49;;;;;;;60.45;27.13;;;;;;;-6.41;84.52;102775.85;1480139;88;21378;-83
2022/12/19 05:02:15;;;;;;;68.57;30.50;;;;;;;-6.38;84.54;102774.16;1479608;88;21333;-83
2022/12/19 05:04:41;;;;;;;60.17;28.25;;;;;;;-6.36;84.75;102777.63;1472874;88;21489;-83
2022/12/19 05:07:07;;;;;;;68.02;30.15;;;;;;;-6.33;84.60;102787.52;1470820;88;21414;-83
2022/12/19 05:09:33;;;;;;;74.03;36.10;;;;;;;-6.31;84.29;102784.54;1473898;88;21421;-83
2022/12/19 05:11:59;;;;;;;59.42;29.75;;;;;;;-6.36;84.20;102785.36;1473265;88;21384;-82
2022/12/19 05:14:26;;;;;;;66.33;29.95;;;;;;;-6.41;84.39;102789.59;1479739;88;22301;-82
2022/12/19 05:16:52;;;;;;;54.23;25.15;;;;;;;-6.46;85.11;102786.09;1476860;88;21576;-83
2022/12/19 05:19:18;;;;;;;56.55;23.92;;;;;;;-6.45;85.01;102794.25;1475006;88;21415;-83
2022/12/19 05:21:44;;;;;;;53.17;25.12;;;;;;;-6.43;84.78;102796.43;1473027;88;21341;-82
2022/12/19 05:24:11;;;;;;;60.15;26.07;;;;;;;-6.39;84.62;102803.77;1467679;88;21356;-83
2022/12/19 05:26:37;;;;;;;54.25;23.62;;;;;;;-6.41;84.22;102808.92;1467938;88;21362;-82
2022/12/19 05:29:03;;;;;;;56.92;24.12;;;;;;;-6.47;84.19;102808.84;1484187;88;22473;-81
2022/12/19 05:31:29;;;;;;;53.87;25.05;;;;;;;-6.49;84.37;102804.52;1477165;88;21562;-82
2022/12/19 05:33:55;;;;;;;47.67;22.20;;;;;;;-6.49;85.11;102802.80;1477833;88;25027;-83
2022/12/19 05:36:21;;;;;;;52.83;23.50;;;;;;;-6.47;85.23;102809.24;1476640;88;21408;-84
2022/12/19 05:38:47;;;;;;;52.10;23.52;;;;;;;-6.50;85.07;102806.63;1471237;88;22373;-83
2022/12/19 05:41:17;;;;;;;44.45;20.80;;;;;;;-6.53;84.82;102808.77;1470888;88;21400;-84
2022/12/19 05:43:46;;;;;;;59.00;26.90;;;;;;;-6.55;85.04;102797.58;1474963;88;22279;-84
2022/12/19 05:46:12;;;;;;;50.40;21.95;;;;;;;-6.59;84.89;102802.23;1483486;88;21371;-84
2022/12/19 05:48:39;;;;;;;51.03;22.87;;;;;;;-6.64;85.60;102812.92;1473698;88;21296;-82
2022/12/19 05:51:05;;;;;;;48.40;21.93;;;;;;;-6.61;85.53;102819.40;1466938;88;22186;-83
2022/12/19 05:53:31;;;;;;;47.58;22.85;;;;;;;-6.59;86.05;102823.73;1473325;88;22257;-79
2022/12/19 05:56:17;;;;;;;53.33;24.00;;;;;;;-6.60;86.15;102826.27;1471082;88;21384;-81
2022/12/19 05:58:44;;;;;;;61.35;25.48;;;;;;;-6.59;85.87;102834.03;1476367;88;21392;-83
2022/12/19 06:01:21;;;;;;;58.60;26.10;;;;;;;-6.63;85.87;102832.67;1462923;88;22369;-84
2022/12/19 06:03:48;;;;;;;56.35;25.37;;;;;;;-6.64;86.34;102835.67;1484303;88;21495;-83
2022/12/19 06:06:17;;;;;;;53.98;22.58;;;;;;;-6.60;85.95;102828.84;1482950;88;21511;-83
2022/12/19 06:08:44;;;;;;;61.85;25.62;;;;;;;-6.57;85.70;102830.17;1479009;88;21570;-84
2022/12/19 06:11:12;;;;;;;60.20;23.27;;;;;;;-6.60;86.19;102826.27;1476853;88;21628;-85
2022/12/19 06:13:39;;;;;;;47.00;21.12;;;;;;;-6.63;86.04;102825.80;1475810;88;21304;-82
2022/12/19 06:16:13;;;;;;;68.45;28.85;;;;;;;-6.66;86.07;102827.48;1482302;88;22213;-85
2022/12/19 06:18:41;;;;;;;61.75;28.77;;;;;;;-6.73;86.50;102828.23;1479314;88;22287;-85
2022/12/19 06:21:17;;;;;;;50.33;22.32;;;;;;;-6.77;86.56;102825.18;1478815;88;21606;-83
2022/12/19 06:23:45;;;;;;;64.07;25.48;;;;;;;-6.74;86.91;102827.80;1476231;88;21384;-83
2022/12/19 06:26:14;;;;;;;60.40;25.60;;;;;;;-6.73;87.10;102833.37;1470686;88;21363;-82
2022/12/19 06:28:41;;;;;;;62.80;27.80;;;;;;;-6.75;86.88;102829.51;1468842;88;22538;-82
2022/12/19 06:31:07;;;;;;;59.55;25.80;;;;;;;-6.77;87.01;102831.62;1482922;88;21400;-83
2022/12/19 06:33:33;;;;;;;47.20;21.60;;;;;;;-6.81;86.74;102845.73;1483952;88;22242;-83
2022/12/19 06:36:13;;;;;;;63.58;24.40;;;;;;;-6.85;86.78;102840.12;1472613;88;21852;-83
2022/12/19 06:38:39;;;;;;;63.48;25.55;;;;;;;-6.82;86.71;102846.59;1484903;88;21474;-82
2022/12/19 06:43:50;;;;;;;55.67;23.80;;;;;;;-6.73;86.59;102839.81;1471259;88;21443;-83
2022/12/19 06:46:16;;;;;;;61.83;27.32;;;;;;;-6.68;86.45;102849.34;1478269;88;21349;-81
2022/12/19 06:48:42;;;;;;;59.90;22.52;;;;;;;-6.69;86.35;102847.62;1472122;88;21363;-81
2022/12/19 06:51:08;;;;;;;63.65;26.45;;;;;;;-6.70;87.10;102857.49;1477604;88;21384;-81
2022/12/19 06:53:34;;;;;;;60.40;27.75;;;;;;;-6.71;86.57;102854.88;1481310;88;21304;-85
2022/12/19 06:56:00;;;;;;;59.80;27.77;;;;;;;-6.71;86.76;102856.16;1462644;88;21356;-82
2022/12/19 06:58:26;;;;;;;57.55;25.20;;;;;;;-6.76;86.49;102858.70;1480075;88;21260;-81
2022/12/19 07:00:53;;;;;;;66.97;27.98;;;;;;;-6.87;86.67;102861.11;1474417;88;21288;-82
2022/12/19 07:03:27;;;;;;;76.05;35.92;;;;;;;-6.88;86.78;102864.50;1468915;88;21517;-84
2022/12/19 07:05:54;;;;;;;71.02;32.23;;;;;;;-6.85;87.28;102863.69;1478937;88;21554;-81
2022/12/19 07:08:20;;;;;;;71.07;34.50;;;;;;;-6.90;87.45;102863.64;1479460;88;21571;-85
2022/12/19 07:10:46;;;;;;;81.02;33.75;;;;;;;-6.92;87.42;102865.31;1479271;88;21451;-81
2022/12/19 07:13:13;;;;;;;70.35;32.08;;;;;;;-6.93;87.79;102861.02;1475792;88;21334;-81
2022/12/19 07:15:39;;;;;;;75.25;34.73;;;;;;;-6.94;88.10;102860.98;1471254;88;21348;-82
2022/12/19 07:18:08;;;;;;;72.40;32.25;;;;;;;-6.90;87.87;102868.79;1477674;88;21334;-82
2022/12/19 07:20:36;;;;;;;78.90;36.48;;;;;;;-6.82;88.38;102863.33;1478540;88;21341;-81
2022/12/19 07:23:05;;;;;;;109.50;48.68;;;;;;;-6.69;88.13;102863.08;1465182;88;21348;-82
2022/12/19 07:25:32;;;;;;;70.32;32.03;;;;;;;-6.56;88.67;102867.10;1483115;88;21369;-82
2022/12/19 07:27:58;;;;;;;80.55;33.95;;;;;;;-6.50;87.81;102868.47;1477997;88;21548;-80
2022/12/19 07:30:25;;;;;;;72.32;33.18;;;;;;;-6.47;87.36;102860.78;1470302;88;22509;-82
2022/12/19 07:32:51;;;;;;;68.35;33.02;;;;;;;-6.46;87.05;102854.80;1479861;88;21482;-90
2022/12/19 07:35:17;;;;;;;67.65;32.05;;;;;;;-6.37;87.12;102863.50;1471890;88;21333;-90
2022/12/19 07:37:43;;;;;;;79.75;34.25;;;;;;;-6.39;86.95;102862.64;1473243;88;21333;-90
2022/12/19 07:40:10;;;;;;;89.52;37.15;;;;;;;-6.29;86.89;102862.75;1476691;88;22243;-89
2022/12/19 07:42:37;;;;;;;93.70;42.70;;;;;;;-6.23;86.98;102862.39;1478968;88;21371;-90
2022/12/19 07:45:05;;;;;;;84.45;41.28;;;;;;;-6.10;87.47;102863.39;1478527;88;21429;-89
2022/12/19 07:47:31;;;;;;;82.62;37.50;;;;;;;-5.95;87.39;102864.02;1468410;88;21318;-92
2022/12/19 07:49:57;;;;;;;70.92;31.62;;;;;;;-5.86;87.20;102861.94;1476163;88;21340;-85
2022/12/19 07:52:23;;;;;;;84.30;39.05;;;;;;;-5.93;86.51;102860.58;1483182;88;21363;-92
2022/12/19 07:54:49;;;;;;;83.27;33.88;;;;;;;-5.83;86.72;102860.67;1472058;88;21393;-91
2022/12/19 07:57:15;;;;;;;83.00;36.85;;;;;;;-5.84;86.69;102857.63;1474278;88;21267;-93
2022/12/19 07:59:41;;;;;;;92.67;38.58;;;;;;;-5.82;87.00;102860.67;1476318;88;21318;-92
2022/12/19 08:02:07;;;;;;;71.97;36.43;;;;;;;-5.73;87.06;102865.92;1463858;88;21319;-92
2022/12/19 08:04:33;;;;;;;108.03;66.67;;;;;;;-5.59;87.26;102867.36;1471894;88;21618;-93
2022/12/19 08:06:59;;;;;;;75.80;39.00;;;;;;;-5.45;87.81;102867.06;1474712;88;21594;-91
2022/12/19 08:09:26;;;;;;;78.20;37.60;;;;;;;-5.32;87.93;102865.88;1483933;88;21387;-91
2022/12/19 08:11:54;;;;;;;68.47;34.80;;;;;;;-5.19;88.14;102874.17;1475980;88;22549;-91
2022/12/19 08:14:20;;;;;;;64.42;33.25;;;;;;;-5.08;87.40;102867.38;1477018;88;21452;-85
2022/12/19 08:16:47;;;;;;;105.78;50.60;;;;;;;-4.95;87.07;102867.47;1483134;88;21488;-90
2022/12/19 08:19:13;;;;;;;74.00;36.05;;;;;;;-4.87;86.49;102867.95;1468498;88;21356;-93
2022/12/19 08:21:39;;;;;;;129.50;55.83;;;;;;;-4.76;86.66;102862.88;1452853;88;22279;-91
2022/12/19 08:24:06;;;;;;;75.25;31.82;;;;;;;-4.81;85.70;102852.92;1484725;88;21670;-91
2022/12/19 08:26:32;;;;;;;92.85;41.42;;;;;;;-4.73;85.74;102853.84;1476070;88;21421;-88
2022/12/19 08:28:58;;;;;;;238.92;82.53;;;;;;;-4.69;85.70;102853.42;1478185;88;21348;-92
2022/12/19 08:31:26;;;;;;;96.65;40.38;;;;;;;-4.66;85.38;102851.75;1465823;88;21459;-91
2022/12/19 08:33:55;;;;;;;78.90;36.28;;;;;;;-4.50;85.74;102853.11;1484596;88;21363;-93
2022/12/19 08:36:24;;;;;;;72.22;31.20;;;;;;;-4.37;85.96;102847.16;1485258;88;21303;-87
2022/12/19 08:38:51;;;;;;;63.50;30.10;;;;;;;-4.31;86.06;102842.87;1475010;88;21378;-88
2022/12/19 08:41:18;;;;;;;64.40;30.25;;;;;;;-4.21;86.04;102832.12;1452259;88;21481;-87
2022/12/19 08:43:50;;;;;;;62.33;27.25;;;;;;;-4.15;85.78;102833.43;1477275;88;21348;-91
2022/12/19 08:46:17;;;;;;;73.50;31.95;;;;;;;-4.08;85.69;102835.63;1474937;88;21362;-87
2022/12/19 08:48:44;;;;;;;57.35;28.30;;;;;;;-4.03;85.48;102826.57;1476410;88;21451;-89
2022/12/19 08:51:12;;;;;;;67.53;31.42;;;;;;;-3.91;85.57;102827.92;1473071;88;21492;-91
2022/12/19 08:53:40;;;;;;;67.20;31.55;;;;;;;-3.82;85.46;102818.88;1473102;88;21310;-91
2022/12/19 08:56:17;;;;;;;66.77;29.60;;;;;;;-3.74;85.10;102826.23;1480237;88;21355;-91
2022/12/19 08:58:44;;;;;;;72.78;31.93;;;;;;;-3.66;84.99;102828.37;1474466;88;22375;-92
2022/12/19 09:01:17;;;;;;;75.92;36.83;;;;;;;-3.58;84.39;102824.94;1464961;88;21429;-90
2022/12/19 09:03:44;;;;;;;93.00;41.13;;;;;;;-3.46;85.01;102820.63;1473526;88;21370;-91
2022/12/19 09:06:12;;;;;;;67.32;31.57;;;;;;;-3.36;84.96;102826.69;1469818;88;21348;-94
2022/12/19 09:08:39;;;;;;;75.15;34.95;;;;;;;-3.26;84.82;102819.77;1484617;88;21399;-88
2022/12/19 09:11:12;;;;;;;66.97;32.85;;;;;;;-3.18;84.21;102824.08;1457105;88;21384;-92
2022/12/19 09:13:41;;;;;;;94.65;45.75;;;;;;;-3.05;84.53;102822.77;1475832;88;21362;-93
2022/12/19 09:16:17;;;;;;;110.95;54.63;;;;;;;-2.93;84.35;102818.88;1475024;88;21392;-93
2022/12/19 09:18:53;;;;;;;77.47;37.75;;;;;;;-2.86;83.26;102814.53;1476272;88;21429;-89
2022/12/19 09:21:22;;;;;;;57.93;30.68;;;;;;;-2.80;82.71;102813.22;1477688;88;22264;-89
2022/12/19 09:23:56;;;;;;;64.67;31.48;;;;;;;-2.72;82.42;102825.30;1477388;88;21429;-93
2022/12/19 09:26:24;;;;;;;62.08;30.37;;;;;;;-2.74;81.77;102823.13;1474402;88;21377;-91
2022/12/19 09:28:51;;;;;;;66.62;33.67;;;;;;;-2.62;82.69;102819.67;1477196;88;22309;-88
2022/12/19 09:31:24;;;;;;;65.32;33.55;;;;;;;-2.51;82.43;102815.72;1468082;88;21377;-90
2022/12/19 09:33:51;;;;;;;66.35;31.70;;;;;;;-2.44;82.35;102807.51;1477473;88;21348;-91
2022/12/19 09:36:20;;;;;;;78.20;34.70;;;;;;;-2.34;81.80;102799.66;1469454;88;21363;-92
2022/12/19 09:38:47;;;;;;;94.62;40.63;;;;;;;-2.23;81.84;102798.76;1475545;88;21334;-90
2022/12/19 09:41:42;;;;;;;70.10;34.77;;;;;;;-2.16;80.77;102803.03;1472019;88;21238;-81
2022/12/19 09:45:04;;;;;;;72.57;36.77;;;;;;;-1.86;82.06;102797.67;1472921;88;21480;-91
2022/12/19 09:47:31;;;;;;;;;;;;;;;-1.19;78.69;102787.61;1469413;88;21729;-90
2022/12/19 09:49:59;;;;;;;78.07;36.67;;;;;;;-0.38;73.88;102789.75;1475711;88;20295;-89
2022/12/19 09:52:43;;;;;;;72.53;37.00;;;;;;;0.19;74.31;102784.17;1472463;88;21648;-90
2022/12/19 09:55:39;;;;;;;74.13;41.10;;;;;;;0.74;74.17;102782.41;1483468;88;22775;-89
2022/12/19 09:58:19;;;;;;;69.20;36.83;;;;;;;1.02;71.49;102787.98;1471345;88;22043;-87
2022/12/19 10:00:51;;;;;;;67.70;37.10;;;;;;;1.15;68.09;102793.83;1478733;88;22197;-90
2022/12/19 10:03:31;;;;;;;71.37;37.80;;;;;;;1.68;71.21;102794.97;1476585;88;22102;-88
2022/12/19 10:06:21;;;;;;;69.60;38.30;;;;;;;1.96;69.72;102791.31;1473563;88;21429;-90
2022/12/19 10:08:47;;;;;;;74.50;39.20;;;;;;;2.16;67.57;102781.27;1477212;88;21325;-89
2022/12/19 10:11:19;;;;;;;70.10;37.70;;;;;;;2.48;68.33;102779.63;1474144;88;22604;-88
2022/12/19 10:14:27;;;;;;;65.63;37.73;;;;;;;2.85;69.15;102767.78;1472558;88;21310;-91
2022/12/19 10:17:34;;;;;;;64.07;35.10;;;;;;;2.95;64.22;102769.69;1473607;88;21384;-90
2022/12/19 10:20:30;;;;;;;110.07;55.80;;;;;;;2.44;63.12;102767.52;1479726;88;22348;-90
2022/12/19 10:23:26;;;;;;;262.00;138.67;;;;;;;2.88;65.28;102761.61;1474104;88;21430;-87
2022/12/19 10:26:08;;;;;;;85.93;49.40;;;;;;;3.05;64.03;102750.66;1478681;88;21471;-90
2022/12/19 10:28:40;;;;;;;;;;;;;;;3.27;64.66;102749.63;1471189;88;21318;-88
2022/12/19 10:31:18;;;;;;;66.30;36.80;;;;;;;3.44;62.17;102752.61;1479280;88;20326;-86
2022/12/19 10:33:55;;;;;;;62.57;36.10;;;;;;;3.63;65.26;102744.23;1466390;88;21554;-87
2022/12/19 10:36:24;;;;;;;62.50;35.00;;;;;;;3.52;60.83;102749.78;1472602;88;21429;-87
2022/12/19 10:38:55;;;;;;;79.30;44.47;;;;;;;3.75;62.30;102756.94;1471759;88;21325;-88
2022/12/19 10:41:26;;;;;;;61.67;35.70;;;;;;;3.80;62.63;102749.81;1465750;88;21385;-85
2022/12/19 10:44:04;;;;;;;67.22;36.88;;;;;;;3.53;60.29;102743.62;1453343;88;21355;-85
2022/12/19 10:46:47;;;;;;;68.10;41.63;;;;;;;3.31;59.66;102747.31;1473237;88;22308;-87
2022/12/19 10:49:26;;;;;;;66.70;38.33;;;;;;;3.26;61.89;102748.77;1487370;88;21362;-86
2022/12/19 10:51:57;;;;;;;63.43;34.70;;;;;;;3.36;63.17;102746.73;1477592;88;21429;-86
2022/12/19 10:54:38;;;;;;;64.87;36.10;;;;;;;3.34;60.51;102731.55;1470817;88;21566;-88
2022/12/19 10:57:29;;;;;;;68.30;35.98;;;;;;;3.56;63.29;102732.60;1472151;88;21400;-87
2022/12/19 11:00:02;;;;;;;63.52;38.33;;;;;;;3.76;61.67;102740.31;1474551;88;22473;-90
2022/12/19 11:02:49;;;;;;;62.70;35.33;;;;;;;3.85;61.44;102740.02;1478931;88;21495;-90
2022/12/19 11:05:45;;;;;;;66.13;35.93;;;;;;;3.89;61.21;102738.19;1478682;88;22684;-87
2022/12/19 11:08:30;;;;;;;64.83;33.83;;;;;;;3.74;60.68;102743.00;1473181;88;22560;-87
2022/12/19 11:11:08;;;;;;;59.97;33.67;;;;;;;3.75;60.40;102745.16;1472510;88;21443;-88
2022/12/19 11:13:39;;;;;;;70.40;38.00;;;;;;;3.99;62.46;102732.59;1444245;90;21405;-87
2022/12/19 11:16:07;;;;;;;58.53;34.03;;;;;;;4.11;61.25;102718.69;1448509;90;21523;-87
2022/12/19 11:18:43;;;;;;;60.73;35.47;;;;;;;4.04;59.78;102683.52;1447884;90;22449;-85
2022/12/19 11:21:32;;;;;;;63.70;38.03;;;;;;;3.87;60.43;102675.80;1440402;90;21398;-88
2022/12/19 11:24:05;;;;;;;56.90;33.33;;;;;;;3.88;61.70;102679.67;1439599;90;21486;-87
2022/12/19 11:26:48;;;;;;;60.63;34.23;;;;;;;3.74;60.01;102674.02;1447158;90;21434;-88
2022/12/19 11:29:28;;;;;;;70.87;41.50;;;;;;;3.56;59.96;102668.45;1450440;90;21390;-87
2022/12/19 11:32:01;;;;;;;44.93;27.13;;;;;;;3.52;60.72;102673.39;1442794;90;21637;-86
2022/12/19 11:34:31;;;;;;;65.43;36.67;;;;;;;3.49;60.73;102680.48;1451422;90;22369;-89
2022/12/19 11:37:21;;;;;;;82.47;44.20;;;;;;;3.68;61.36;102684.69;1444413;90;21520;-87
2022/12/19 11:40:04;;;;;;;64.77;36.47;;;;;;;3.72;61.60;102679.31;1451344;90;21456;-83